Skip Navigation LinksHome page > Tools > METAR decoder Skip Navigation Links

METAR decoder

Settings

METAR

Chicago O'Hare Intl, Chicago

For information only: do not use for flight planning or navigation.
Latest weather
Observation time Saturday, April 19, 2014 4:51 PM CDT
Local time Saturday, April 19, 2014 5:46 PM CDT
Flight conditions Visual Meteorological Conditions
Winds
Wind direction Southeast (140°)
Wind speed 12 mph
Visibility 10 mi.
Sky condition
Ceiling 30,000 ft. broken clouds
Cloud layer broken clouds 30,000 ft.
Temperature 65°F
Dewpoint 36°F
Altimeter 30.23 in.Hg
Derived measurements
Relative humidity 34%
Density altitude 146 ft.
Sea-level pressure 30.24 in.Hg
Remarks
Automated weather observing station with precipitation discriminator.
METAR KORD 192151Z 14010KT 10SM BKN300 18/02 A3023 RMK AO2 SLP240 T01830022

InnerDrive.Weather 4.0.4869.0 Release CLR 4.0.30319.18449
Copyright ©2013 Inner Drive Technology. All rights reserved. Portions Copyright ©1986-2013 David Braverman.

Find weather

Site navigation


Skip Navigation Links

Place info

Page info

PayPal - The safer, easier way to pay online!

Return home.

Copyright ©2014 Inner Drive Technology. Purveyors of fine, hand-crafted computer software. Page printed 2014-04-19T22:46:18 UTC.